Time;durP1;ratioP1;P1;durP2;ratioP2;P2;SDS_P1;SDS_P2;PMS_P1;PMS_P2;Temp;Humidity;BMP_temperature;BMP_pressure;BME280_temperature;BME280_humidity;BME280_pressure;Samples;Min_cycle;Max_cycle;Signal;HPM_P1;HPM_P2
2023/08/21 00:01:25;;;;;;;5.97;4.68;;;20.70;99.90;;;;;;5011604;28;20263;-74
2023/08/21 00:03:51;;;;;;;7.07;4.57;;;20.50;99.90;;;;;;5011038;28;20263;-75
2023/08/21 00:06:17;;;;;;;8.27;4.35;;;20.40;99.90;;;;;;5011532;28;20582;-74
2023/08/21 00:08:42;;;;;;;5.32;4.80;;;20.30;99.90;;;;;;5011475;28;20168;-74
2023/08/21 00:11:08;;;;;;;7.15;5.45;;;20.30;99.90;;;;;;5011520;28;20169;-73
2023/08/21 00:13:33;;;;;;;5.10;4.60;;;20.30;99.90;;;;;;5010890;28;20196;-75
2023/08/21 00:15:59;;;;;;;5.47;4.18;;;20.40;99.90;;;;;;5010099;28;20184;-74
2023/08/21 00:18:25;;;;;;;4.15;3.75;;;20.40;99.90;;;;;;5011419;28;20180;-74
2023/08/21 00:20:51;;;;;;;6.35;4.10;;;20.40;99.90;;;;;;5011292;28;20528;-74
2023/08/21 00:23:16;;;;;;;5.72;4.55;;;20.40;99.90;;;;;;5011011;28;20176;-73
2023/08/21 00:25:46;;;;;;;4.85;4.28;;;20.40;99.90;;;;;;5011100;28;20248;-74
2023/08/21 00:28:12;;;;;;;4.53;4.00;;;20.40;99.90;;;;;;5011496;28;20702;-75
2023/08/21 00:30:37;;;;;;;4.38;3.95;;;20.40;99.90;;;;;;5009724;28;20211;-74
2023/08/21 00:33:03;;;;;;;6.28;4.18;;;20.40;99.90;;;;;;5010554;28;20176;-74
2023/08/21 00:35:29;;;;;;;5.43;4.35;;;20.40;99.90;;;;;;5011085;28;20227;-74
2023/08/21 00:37:54;;;;;;;6.03;4.32;;;20.40;99.90;;;;;;5010829;28;20180;-74
2023/08/21 00:40:20;;;;;;;5.22;4.00;;;20.30;99.90;;;;;;5010983;28;20701;-74
2023/08/21 00:42:45;;;;;;;8.70;4.05;;;20.30;99.90;;;;;;5010749;28;20180;-74
2023/08/21 00:45:11;;;;;;;6.35;4.43;;;20.30;99.90;;;;;;5011192;28;20216;-74
2023/08/21 00:47:37;;;;;;;7.05;3.63;;;20.30;99.90;;;;;;5010935;28;20204;-74
2023/08/21 00:50:06;;;;;;;4.28;3.88;;;20.30;99.90;;;;;;5012499;28;20270;-74
2023/08/21 00:52:32;;;;;;;6.43;3.53;;;20.30;99.90;;;;;;5014309;28;20255;-74
2023/08/21 00:54:58;;;;;;;8.77;3.40;;;20.30;99.90;;;;;;5014540;28;20196;-74
2023/08/21 00:57:24;;;;;;;5.72;3.60;;;20.20;99.90;;;;;;5014483;28;20180;-73
2023/08/21 00:59:50;;;;;;;5.72;4.10;;;20.20;99.90;;;;;;5014415;28;20169;-74
2023/08/21 01:02:16;;;;;;;3.78;3.47;;;20.10;99.90;;;;;;5014357;28;20176;-73
2023/08/21 01:04:42;;;;;;;7.75;3.83;;;20.10;99.90;;;;;;5014266;28;20231;-73
2023/08/21 01:07:09;;;;;;;4.45;3.63;;;20.10;99.90;;;;;;5013021;28;20255;-73
2023/08/21 01:09:52;;;;;;;4.07;3.60;;;20.10;99.90;;;;;;5014121;28;20686;-73
2023/08/21 01:12:26;;;;;;;3.97;3.60;;;20.10;99.90;;;;;;5014008;28;20251;-74
2023/08/21 01:15:06;;;;;;;7.88;3.90;;;20.10;99.90;;;;;;5013924;28;20199;-74
2023/08/21 01:17:36;;;;;;;5.53;3.60;;;20.00;99.90;;;;;;5014129;28;20202;-74
2023/08/21 01:20:03;;;;;;;5.43;4.05;;;20.00;99.90;;;;;;5013995;28;20255;-74
2023/08/21 01:22:39;;;;;;;5.47;3.33;;;20.00;99.90;;;;;;5013755;28;20169;-74
2023/08/21 01:25:05;;;;;;;3.65;3.40;;;20.00;99.90;;;;;;5013776;28;20192;-74
2023/08/21 01:27:32;;;;;;;6.72;4.15;;;20.00;99.90;;;;;;5013495;28;20241;-74
2023/08/21 01:29:59;;;;;;;7.73;3.50;;;20.00;99.90;;;;;;5013429;28;20175;-73
2023/08/21 01:32:38;;;;;;;6.70;4.20;;;20.00;99.90;;;;;;5013448;28;20171;-74
2023/08/21 01:35:05;;;;;;;7.60;3.45;;;19.90;99.90;;;;;;5012929;28;20192;-73
2023/08/21 01:37:31;;;;;;;5.00;4.22;;;19.90;99.90;;;;;;5012526;28;20206;-74
2023/08/21 01:40:00;;;;;;;8.93;3.80;;;19.80;99.90;;;;;;5011433;28;20230;-75
2023/08/21 01:42:25;;;;;;;6.13;3.58;;;19.80;99.90;;;;;;5013210;28;20678;-73
2023/08/21 01:44:51;;;;;;;5.05;3.40;;;19.80;99.90;;;;;;5013063;28;20295;-74
2023/08/21 01:47:16;;;;;;;4.25;3.70;;;19.80;99.90;;;;;;5013473;28;20577;-73
2023/08/21 01:49:42;;;;;;;6.40;3.70;;;19.80;99.90;;;;;;5013127;28;20168;-74
2023/08/21 01:52:08;;;;;;;5.43;4.00;;;19.80;99.90;;;;;;5012990;28;20176;-74
2023/08/21 01:54:33;;;;;;;6.80;3.88;;;19.70;99.90;;;;;;5013191;28;20662;-74
2023/08/21 01:56:59;;;;;;;4.30;3.90;;;19.70;99.90;;;;;;5013002;28;20291;-73
2023/08/21 01:59:25;;;;;;;6.57;3.43;;;19.60;99.90;;;;;;5013423;28;20176;-73
2023/08/21 02:01:50;;;;;;;6.85;3.80;;;19.60;99.90;;;;;;5011170;28;20188;-73
2023/08/21 02:04:16;;;;;;;7.90;4.20;;;19.50;99.90;;;;;;5012000;28;20220;-73
2023/08/21 02:06:43;;;;;;;6.22;3.60;;;19.50;99.90;;;;;;5012780;28;20208;-73
2023/08/21 02:09:09;;;;;;;4.57;4.00;;;19.50;99.90;;;;;;5011525;28;20235;-73
2023/08/21 02:11:35;;;;;;;5.78;3.92;;;19.50;99.90;;;;;;5012520;28;20219;-75
2023/08/21 02:14:00;;;;;;;6.07;3.60;;;19.40;99.90;;;;;;5012703;28;20282;-74
2023/08/21 02:16:26;;;;;;;5.10;3.70;;;19.40;99.90;;;;;;5012628;28;20184;-74
2023/08/21 02:18:52;;;;;;;4.67;3.60;;;19.40;99.90;;;;;;5012699;28;20322;-74
2023/08/21 02:21:17;;;;;;;5.17;3.90;;;19.40;99.90;;;;;;5012768;28;20234;-74
2023/08/21 02:23:43;;;;;;;5.37;3.57;;;19.30;99.90;;;;;;5012442;28;20188;-74
2023/08/21 02:26:08;;;;;;;3.90;3.53;;;19.30;99.90;;;;;;5012502;28;20187;-74
2023/08/21 02:28:34;;;;;;;8.55;3.75;;;19.30;99.90;;;;;;5012705;28;20208;-73
2023/08/21 02:31:00;;;;;;;5.60;3.58;;;19.30;99.90;;;;;;5011081;28;20172;-73
2023/08/21 02:33:25;;;;;;;4.13;3.77;;;19.30;99.90;;;;;;5012643;28;20174;-73
2023/08/21 02:35:51;;;;;;;6.80;4.05;;;19.30;99.90;;;;;;5012364;28;20172;-73
2023/08/21 02:38:17;;;;;;;5.07;3.50;;;19.30;99.90;;;;;;5012590;28;20258;-74
2023/08/21 02:40:42;;;;;;;5.77;4.20;;;19.30;99.90;;;;;;5012605;28;20257;-74
2023/08/21 02:43:08;;;;;;;4.13;3.70;;;19.20;99.90;;;;;;5012125;28;20176;-73
2023/08/21 02:45:33;;;;;;;5.50;4.00;;;19.20;99.90;;;;;;5012325;28;20274;-73
2023/08/21 02:47:59;;;;;;;12.63;3.80;;;19.30;99.90;;;;;;5012101;28;20627;-73
2023/08/21 02:50:24;;;;;;;4.32;3.75;;;19.30;99.90;;;;;;5012500;28;20172;-74
2023/08/21 02:52:50;;;;;;;3.92;3.53;;;19.30;99.90;;;;;;5011943;28;20172;-73
2023/08/21 02:55:16;;;;;;;5.03;3.60;;;19.30;99.90;;;;;;5012188;28;20597;-73
2023/08/21 02:57:42;;;;;;;4.47;3.80;;;19.30;99.90;;;;;;5012146;28;20174;-73
2023/08/21 03:00:08;;;;;;;4.30;3.92;;;19.40;99.90;;;;;;5012120;28;20715;-73
2023/08/21 03:02:34;;;;;;;5.40;3.90;;;19.40;99.90;;;;;;5011904;28;20200;-73
2023/08/21 03:05:00;;;;;;;4.47;3.80;;;19.40;99.90;;;;;;5011916;28;20227;-73
2023/08/21 03:07:26;;;;;;;8.60;3.90;;;19.40;99.90;;;;;;5012146;28;20211;-74
2023/08/21 03:09:51;;;;;;;4.07;3.65;;;19.40;99.90;;;;;;5011918;28;20168;-73
2023/08/21 03:12:17;;;;;;;5.50;3.70;;;19.30;99.90;;;;;;5011455;28;20231;-73
2023/08/21 03:14:43;;;;;;;5.40;3.90;;;19.30;99.90;;;;;;5012205;28;20603;-73
2023/08/21 03:17:08;;;;;;;6.73;3.97;;;19.30;99.90;;;;;;5011991;28;20701;-73
2023/08/21 03:19:34;;;;;;;9.73;3.83;;;19.30;99.90;;;;;;5010941;28;20172;-74
2023/08/21 03:22:00;;;;;;;9.97;4.20;;;19.20;99.90;;;;;;5011392;28;20237;-73
2023/08/21 03:24:25;;;;;;;4.90;3.73;;;19.20;99.90;;;;;;5012039;28;20212;-73
2023/08/21 03:26:51;;;;;;;4.93;4.37;;;19.10;99.90;;;;;;5012167;28;20208;-74
2023/08/21 03:29:16;;;;;;;8.37;4.10;;;19.20;99.90;;;;;;5012154;28;20168;-74
2023/08/21 03:31:42;;;;;;;4.80;4.30;;;19.10;99.90;;;;;;5011527;28;20187;-73
2023/08/21 03:34:08;;;;;;;4.72;4.20;;;19.10;99.90;;;;;;5012014;28;20274;-73
2023/08/21 03:36:36;;;;;;;8.50;3.90;;;19.10;99.90;;;;;;5012185;28;20176;-74
2023/08/21 03:39:02;;;;;;;5.35;4.47;;;19.10;99.90;;;;;;5011712;28;20532;-74
2023/08/21 03:41:27;;;;;;;8.83;5.23;;;19.20;99.90;;;;;;5010347;28;20173;-75
2023/08/21 03:43:53;;;;;;;7.97;4.53;;;19.20;99.90;;;;;;5011131;28;20693;-74
2023/08/21 03:46:19;;;;;;;6.50;4.20;;;19.20;99.90;;;;;;5011722;28;20168;-75
2023/08/21 03:48:45;;;;;;;6.40;3.85;;;19.20;99.90;;;;;;5011478;28;20168;-74
2023/08/21 03:51:10;;;;;;;8.30;4.47;;;19.10;99.90;;;;;;5011376;28;20263;-74
2023/08/21 03:53:36;;;;;;;10.03;4.53;;;19.00;99.90;;;;;;5011428;28;20196;-74
2023/08/21 03:56:02;;;;;;;5.33;4.87;;;19.10;99.90;;;;;;5011431;28;20164;-74
2023/08/21 03:58:27;;;;;;;5.75;4.10;;;19.00;99.90;;;;;;5011736;28;20176;-74
2023/08/21 04:00:53;;;;;;;4.23;3.80;;;19.00;99.90;;;;;;5011474;28;20176;-74
2023/08/21 04:03:19;;;;;;;6.40;4.33;;;19.10;99.90;;;;;;5011264;28;20203;-74
2023/08/21 04:05:45;;;;;;;5.40;4.23;;;19.10;99.90;;;;;;5011322;28;20668;-74
2023/08/21 04:08:11;;;;;;;5.70;4.63;;;19.10;99.90;;;;;;5011479;28;20239;-73
2023/08/21 04:10:38;;;;;;;6.03;4.67;;;19.20;99.90;;;;;;5010257;28;20176;-74
2023/08/21 04:13:04;;;;;;;7.57;4.33;;;19.20;99.90;;;;;;5010999;28;20507;-74
2023/08/21 04:15:30;;;;;;;7.25;4.47;;;19.20;99.90;;;;;;5011407;28;20242;-74
2023/08/21 04:17:56;;;;;;;6.27;4.30;;;19.30;99.90;;;;;;5010835;28;20177;-74
2023/08/21 04:20:21;;;;;;;6.45;4.13;;;19.20;99.90;;;;;;5011483;28;20191;-74
2023/08/21 04:22:48;;;;;;;4.57;3.97;;;19.20;99.90;;;;;;5010868;28;20172;-74
2023/08/21 04:25:14;;;;;;;4.53;3.97;;;19.30;99.90;;;;;;5013112;28;20200;-73
2023/08/21 04:27:39;;;;;;;9.00;5.10;;;19.30;99.90;;;;;;5014990;28;20204;-74
2023/08/21 04:30:05;;;;;;;6.43;3.97;;;19.30;99.90;;;;;;5014957;28;20263;-74
2023/08/21 04:32:31;;;;;;;8.25;4.63;;;19.20;99.90;;;;;;5014749;28;20550;-74
2023/08/21 04:34:57;;;;;;;5.37;3.97;;;19.30;99.90;;;;;;5014727;28;20192;-74
2023/08/21 04:37:23;;;;;;;5.30;4.30;;;19.30;99.90;;;;;;5015053;28;20586;-74
2023/08/21 04:39:55;;;;;;;5.17;4.60;;;19.40;99.90;;;;;;5014635;28;20172;-74
2023/08/21 04:42:21;;;;;;;7.33;4.70;;;19.30;99.90;;;;;;5013068;28;20176;-74
2023/08/21 04:44:47;;;;;;;6.37;4.77;;;19.30;99.90;;;;;;5014677;28;20752;-73
2023/08/21 04:47:26;;;;;;;4.88;4.32;;;19.30;99.90;;;;;;5014363;28;20212;-73
2023/08/21 04:49:52;;;;;;;4.70;3.93;;;19.40;99.90;;;;;;5014502;28;20179;-73
2023/08/21 04:52:18;;;;;;;6.15;4.15;;;19.30;99.90;;;;;;5014288;28;20243;-74
2023/08/21 04:54:43;;;;;;;6.50;4.55;;;19.30;99.90;;;;;;5014310;28;20195;-73
2023/08/21 04:57:09;;;;;;;8.00;4.60;;;19.20;99.90;;;;;;5014844;28;20172;-73
2023/08/21 04:59:36;;;;;;;5.13;4.53;;;19.10;99.90;;;;;;5014463;28;20172;-73
2023/08/21 05:02:02;;;;;;;9.03;4.40;;;19.20;99.90;;;;;;5014195;28;20307;-73
2023/08/21 05:04:27;;;;;;;8.65;4.65;;;19.20;99.90;;;;;;5014734;28;20701;-73
2023/08/21 05:06:53;;;;;;;7.47;4.50;;;19.20;99.90;;;;;;5014246;28;20246;-74
2023/08/21 05:09:18;;;;;;;5.90;5.20;;;19.30;99.90;;;;;;5014202;28;20180;-74
2023/08/21 05:11:44;;;;;;;8.75;5.43;;;19.40;99.90;;;;;;5013768;28;20250;-74
2023/08/21 05:14:09;;;;;;;12.97;4.93;;;19.40;99.90;;;;;;5013579;28;20196;-74
2023/08/21 05:16:35;;;;;;;6.22;5.15;;;19.40;99.90;;;;;;5014103;28;20168;-73
2023/08/21 05:19:01;;;;;;;6.73;4.93;;;19.30;99.90;;;;;;5014004;28;20195;-73
2023/08/21 05:21:27;;;;;;;8.60;5.20;;;19.40;99.90;;;;;;5013696;28;20685;-73
2023/08/21 05:23:52;;;;;;;5.83;5.30;;;19.30;99.90;;;;;;5013672;28;20203;-73
2023/08/21 05:26:19;;;;;;;6.07;4.60;;;19.30;99.90;;;;;;5013804;28;20204;-73
2023/08/21 05:28:45;;;;;;;7.60;5.27;;;19.30;99.90;;;;;;5013848;28;20211;-73
2023/08/21 05:31:10;;;;;;;7.70;5.50;;;19.30;99.90;;;;;;5013861;28;20615;-73
2023/08/21 05:33:36;;;;;;;5.97;5.23;;;19.20;99.90;;;;;;5013622;28;20576;-73
2023/08/21 05:36:02;;;;;;;6.13;4.63;;;19.20;99.90;;;;;;5013310;28;20251;-73
2023/08/21 05:38:27;;;;;;;6.00;4.60;;;19.20;99.90;;;;;;5014130;28;20538;-72
2023/08/21 05:40:53;;;;;;;11.07;5.13;;;19.20;99.90;;;;;;5013462;28;20180;-74
2023/08/21 05:43:18;;;;;;;6.68;4.72;;;19.30;99.90;;;;;;5013079;28;20638;-73
2023/08/21 05:45:44;;;;;;;11.83;4.73;;;19.40;99.90;;;;;;5013758;28;20184;-74
2023/08/21 05:48:10;;;;;;;6.03;5.15;;;19.50;99.90;;;;;;5013424;28;20203;-74
2023/08/21 05:50:36;;;;;;;7.22;5.18;;;19.70;99.90;;;;;;5013492;28;20172;-74
2023/08/21 05:53:04;;;;;;;8.10;5.20;;;19.90;99.90;;;;;;5012802;28;20638;-74
2023/08/21 05:55:29;;;;;;;7.03;4.88;;;20.10;99.90;;;;;;5012122;28;20211;-73
2023/08/21 05:57:55;;;;;;;6.13;4.87;;;20.10;99.90;;;;;;5013081;28;20646;-73
2023/08/21 06:00:21;;;;;;;8.10;4.77;;;20.30;99.90;;;;;;5012996;28;20195;-73
2023/08/21 06:02:46;;;;;;;10.13;5.93;;;20.30;99.90;;;;;;5012898;28;20220;-74
2023/08/21 06:05:12;;;;;;;6.90;4.68;;;20.20;99.90;;;;;;5011714;28;20192;-74
2023/08/21 06:07:40;;;;;;;8.30;5.38;;;20.30;99.90;;;;;;5012845;28;20289;-74
2023/08/21 06:10:12;;;;;;;5.03;4.55;;;20.40;99.90;;;;;;5012519;28;20187;-73
2023/08/21 06:12:39;;;;;;;7.75;5.53;;;20.40;99.90;;;;;;5012710;28;20227;-73
2023/08/21 06:15:07;;;;;;;6.72;5.32;;;20.50;99.90;;;;;;5012166;28;20196;-73
2023/08/21 06:17:33;;;;;;;5.82;4.75;;;20.70;99.90;;;;;;5011581;28;20180;-72
2023/08/21 06:19:59;;;;;;;7.75;5.57;;;21.00;99.90;;;;;;5012236;28;20184;-73
2023/08/21 06:22:25;;;;;;;6.82;5.05;;;21.40;99.90;;;;;;5011768;28;20187;-73
2023/08/21 06:24:50;;;;;;;8.00;5.60;;;21.80;99.90;;;;;;5012470;28;20199;-73
2023/08/21 06:27:16;;;;;;;7.22;4.75;;;22.20;99.90;;;;;;5012523;28;20192;-73
2023/08/21 06:29:41;;;;;;;144.20;129.90;;;22.60;99.90;;;;;;5012765;28;20184;-73
2023/08/21 06:32:07;;;;;;;52.70;49.90;;;23.20;99.90;;;;;;5010821;28;20262;-74
2023/08/21 06:34:33;;;;;;;61.15;58.22;;;23.80;99.90;;;;;;5012585;28;20275;-73
2023/08/21 06:36:58;;;;;;;85.55;81.65;;;24.30;99.90;;;;;;5012254;28;20176;-73
2023/08/21 06:39:25;;;;;;;76.18;72.75;;;24.80;99.90;;;;;;5012727;28;20172;-73
2023/08/21 06:41:51;;;;;;;60.92;57.95;;;25.40;99.90;;;;;;5012178;28;20259;-73
2023/08/21 06:44:16;;;;;;;52.08;49.42;;;26.10;99.90;;;;;;5012290;28;20286;-73
2023/08/21 06:46:43;;;;;;;40.33;38.13;;;26.80;99.90;;;;;;5011971;28;20196;-74
2023/08/21 06:49:08;;;;;;;33.00;31.08;;;27.40;99.90;;;;;;5012071;28;20183;-73
2023/08/21 06:51:34;;;;;;;28.95;27.23;;;27.70;99.90;;;;;;5012183;28;20544;-73
2023/08/21 06:54:00;;;;;;;24.48;23.05;;;27.90;99.90;;;;;;5011910;28;20187;-73
2023/08/21 06:56:25;;;;;;;28.35;26.92;;;28.20;99.90;;;;;;5011364;28;20180;-74
2023/08/21 06:58:52;;;;;;;30.20;28.70;;;28.30;99.90;;;;;;5012251;28;20187;-73
2023/08/21 07:01:17;;;;;;;27.60;26.05;;;28.30;99.90;;;;;;5012421;28;20646;-73
2023/08/21 07:03:43;;;;;;;25.95;24.55;;;28.60;99.90;;;;;;5012303;28;20207;-73
2023/08/21 07:06:09;;;;;;;24.58;23.23;;;28.50;99.90;;;;;;5011636;28;20262;-73
2023/08/21 07:08:34;;;;;;;23.63;22.27;;;28.70;99.90;;;;;;5011850;28;20208;-73
2023/08/21 07:11:04;;;;;;;21.25;19.83;;;28.60;99.90;;;;;;5011891;28;20175;-73
2023/08/21 07:13:29;;;;;;;23.80;22.40;;;28.50;99.90;;;;;;5010362;28;20523;-72
2023/08/21 07:15:55;;;;;;;20.98;19.42;;;28.30;99.90;;;;;;5011642;28;20168;-73
2023/08/21 07:18:21;;;;;;;17.98;16.50;;;28.30;99.90;;;;;;5011902;28;20552;-73
2023/08/21 07:20:46;;;;;;;19.15;17.83;;;28.00;99.90;;;;;;5011942;28;20175;-73
2023/08/21 07:23:12;;;;;;;19.38;18.08;;;27.60;99.90;;;;;;5011601;28;20227;-72
2023/08/21 07:25:37;;;;;;;19.77;18.38;;;27.60;99.90;;;;;;5011845;28;20173;-73
2023/08/21 07:28:04;;;;;;;19.85;18.25;;;27.60;99.90;;;;;;5010172;28;20621;-72
2023/08/21 07:30:29;;;;;;;21.20;20.05;;;27.90;99.90;;;;;;5010767;28;20283;-72
2023/08/21 07:32:55;;;;;;;19.52;18.23;;;28.10;99.90;;;;;;5010154;28;20251;-73
2023/08/21 07:35:20;;;;;;;20.52;19.25;;;28.10;99.90;;;;;;5010508;28;20658;-73
2023/08/21 07:37:46;;;;;;;17.05;15.55;;;28.20;99.90;;;;;;5010134;28;20184;-73
2023/08/21 07:40:12;;;;;;;15.13;13.70;;;28.40;99.90;;;;;;5010363;28;20168;-73
2023/08/21 07:42:38;;;;;;;12.90;11.98;;;28.60;99.90;;;;;;5011255;28;20184;-72
2023/08/21 07:45:05;;;;;;;12.38;11.27;;;28.60;99.90;;;;;;5010174;28;20224;-72
2023/08/21 07:47:31;;;;;;;12.18;11.02;;;28.70;99.90;;;;;;5011781;28;20211;-72
2023/08/21 07:49:57;;;;;;;12.55;11.25;;;28.80;99.90;;;;;;5011567;28;20184;-71
2023/08/21 07:52:23;;;;;;;13.90;11.93;;;28.80;99.90;;;;;;5011348;28;20183;-73
2023/08/21 07:54:52;;;;;;;15.57;14.45;;;28.90;99.90;;;;;;5011511;28;20211;-72
2023/08/21 07:57:18;;;;;;;20.42;19.20;;;29.10;99.90;;;;;;5012183;28;20262;-72
2023/08/21 07:59:44;;;;;;;14.05;13.10;;;29.30;99.90;;;;;;5014943;28;20220;-72
2023/08/21 08:02:12;;;;;;;13.93;12.82;;;29.60;99.90;;;;;;5015566;28;20180;-73
2023/08/21 08:04:38;;;;;;;14.30;11.35;;;29.80;99.90;;;;;;5016684;28;20192;-73
2023/08/21 08:07:04;;;;;;;13.70;12.60;;;30.00;99.90;;;;;;5016030;28;20211;-73
2023/08/21 08:09:30;;;;;;;14.43;13.00;;;30.00;99.90;;;;;;5015737;28;20176;-73
2023/08/21 08:11:56;;;;;;;15.15;10.77;;;29.90;99.90;;;;;;5015146;28;20226;-73
2023/08/21 08:14:21;;;;;;;12.98;11.48;;;29.70;99.90;;;;;;5014552;28;20196;-73
2023/08/21 08:16:47;;;;;;;11.48;10.40;;;29.90;99.90;;;;;;5015255;28;20374;-74
2023/08/21 08:19:13;;;;;;;11.70;9.68;;;30.20;99.90;;;;;;5013586;28;20215;-73
2023/08/21 08:21:38;;;;;;;9.43;8.52;;;30.40;99.90;;;;;;5014946;28;20650;-74
2023/08/21 08:24:04;;;;;;;10.75;7.07;;;30.50;99.90;;;;;;5014584;28;20207;-72
2023/08/21 08:26:30;;;;;;;13.63;7.22;;;30.70;99.90;;;;;;5015172;28;20539;-74
2023/08/21 08:28:55;;;;;;;12.40;7.70;;;30.60;99.90;;;;;;5014699;28;20255;-73
2023/08/21 08:31:23;;;;;;;7.03;6.43;;;30.50;99.90;;;;;;5014344;28;20184;-73
2023/08/21 08:33:48;;;;;;;7.35;6.75;;;30.30;99.90;;;;;;5014208;28;20677;-73
2023/08/21 08:36:14;;;;;;;7.43;5.57;;;30.60;99.90;;;;;;5013513;28;20188;-73
2023/08/21 08:38:39;;;;;;;8.57;6.38;;;31.10;99.90;;;;;;5014642;28;20187;-73
2023/08/21 08:41:11;;;;;;;1114.30;256.45;;;31.40;99.90;;;;;;5014520;28;20183;-73
2023/08/21 08:43:40;;;;;;;27.77;25.83;;;31.40;99.90;;;;;;5014274;28;20211;-73
2023/08/21 08:46:08;;;;;;;17.85;16.40;;;31.50;99.90;;;;;;5013039;28;20187;-73
2023/08/21 08:48:35;;;;;;;11.55;10.57;;;31.80;99.90;;;;;;5015021;28;20685;-73
2023/08/21 08:51:03;;;;;;;11.23;9.63;;;32.20;99.90;;;;;;5012923;28;20187;-73
2023/08/21 08:53:29;;;;;;;10.00;8.95;;;32.50;99.90;;;;;;5014427;28;20171;-73
2023/08/21 08:55:55;;;;;;;10.60;9.73;;;32.60;99.90;;;;;;5014487;28;20168;-73
2023/08/21 08:58:21;;;;;;;15.52;14.27;;;32.90;99.90;;;;;;5014285;28;20184;-73
2023/08/21 09:00:47;;;;;;;15.27;14.05;;;33.10;99.90;;;;;;5014351;28;20168;-74
2023/08/21 09:03:13;;;;;;;16.58;15.45;;;33.30;99.90;;;;;;5014072;28;20176;-73
2023/08/21 09:05:40;;;;;;;15.70;14.60;;;33.30;99.90;;;;;;5014504;28;20251;-73
2023/08/21 09:08:13;;;;;;;14.20;12.98;;;32.90;99.90;;;;;;5013779;28;20211;-73
2023/08/21 09:10:40;;;;;;;18.10;16.63;;;32.90;99.90;;;;;;5013477;28;20168;-73
2023/08/21 09:13:12;;;;;;;15.15;14.05;;;32.90;99.90;;;;;;5013652;28;20180;-73
2023/08/21 09:15:38;;;;;;;10.90;9.60;;;32.60;99.90;;;;;;5014121;28;20172;-72
2023/08/21 09:18:04;;;;;;;14.00;12.43;;;32.30;99.90;;;;;;5013619;28;20711;-73
2023/08/21 09:20:35;;;;;;;17.15;15.90;;;32.50;99.90;;;;;;5013375;28;20575;-73
2023/08/21 09:23:01;;;;;;;17.05;15.80;;;32.50;99.90;;;;;;5011910;28;20184;-71
2023/08/21 09:25:27;;;;;;;10.68;9.90;;;32.20;99.90;;;;;;5013369;28;20200;-72
2023/08/21 09:27:53;;;;;;;12.57;11.63;;;31.90;99.90;;;;;;5013475;28;20215;-72
2023/08/21 09:30:19;;;;;;;14.63;13.57;;;31.90;99.90;;;;;;5013331;28;20259;-73
2023/08/21 09:33:04;;;;;;;17.70;16.35;;;32.00;99.90;;;;;;5013140;28;20655;-72
2023/08/21 09:35:32;;;;;;;18.95;17.45;;;32.20;99.90;;;;;;5013418;28;20192;-73
2023/08/21 09:37:59;;;;;;;19.50;17.85;;;32.20;99.90;;;;;;5013266;28;20255;-72
2023/08/21 09:40:24;;;;;;;16.85;15.48;;;32.30;99.90;;;;;;5013740;28;20184;-72
2023/08/21 09:42:56;;;;;;;16.00;14.65;;;32.20;99.90;;;;;;5013173;28;20180;-73
2023/08/21 09:45:26;;;;;;;16.55;14.98;;;31.90;99.90;;;;;;5013121;28;20212;-73
2023/08/21 09:47:55;;;;;;;20.05;18.20;;;32.00;99.90;;;;;;5013144;28;20670;-73
2023/08/21 09:50:22;;;;;;;20.88;19.17;;;32.10;99.90;;;;;;5013413;28;20631;-73
2023/08/21 09:52:48;;;;;;;17.20;15.95;;;32.20;99.90;;;;;;5012593;28;20558;-72
2023/08/21 09:55:15;;;;;;;13.30;12.18;;;31.90;99.90;;;;;;5013064;28;20195;-73
2023/08/21 09:57:41;;;;;;;15.63;14.32;;;31.70;99.90;;;;;;5013172;28;20732;-73
2023/08/21 10:00:20;;;;;;;14.45;13.02;;;31.70;99.90;;;;;;5012860;28;20215;-73
2023/08/21 10:02:53;;;;;;;16.40;14.98;;;31.60;99.90;;;;;;5012497;28;20187;-71
2023/08/21 10:05:20;;;;;;;15.98;11.52;;;31.50;99.90;;;;;;5013097;28;20200;-74
2023/08/21 10:07:48;;;;;;;12.93;11.73;;;31.40;99.90;;;;;;5012860;28;20200;-73
2023/08/21 10:10:14;;;;;;;14.30;13.07;;;31.40;99.90;;;;;;5013282;28;20180;-73
2023/08/21 10:12:41;;;;;;;16.10;14.82;;;31.50;99.90;;;;;;5012688;28;20168;-72
2023/08/21 10:15:09;;;;;;;15.30;14.20;;;31.40;99.90;;;;;;5012673;28;20627;-73
2023/08/21 10:17:35;;;;;;;20.65;18.60;;;31.50;99.90;;;;;;5012780;28;20172;-73
2023/08/21 10:20:06;;;;;;;23.52;21.92;;;31.80;99.90;;;;;;5012361;28;20255;-71
2023/08/21 10:22:43;;;;;;;23.35;21.65;;;32.10;99.90;;;;;;5011383;28;20210;-73
2023/08/21 10:25:22;;;;;;;22.58;21.05;;;32.10;99.90;;;;;;5011842;28;20203;-73
2023/08/21 10:27:55;;;;;;;23.02;21.33;;;32.20;99.90;;;;;;5012400;28;20586;-72
2023/08/21 10:30:26;;;;;;;20.50;19.17;;;32.20;99.90;;;;;;5012596;28;20168;-70
2023/08/21 10:32:53;;;;;;;15.75;14.65;;;31.90;99.90;;;;;;5012136;28;20176;-73
2023/08/21 10:35:22;;;;;;;23.42;21.60;;;31.50;99.90;;;;;;5012366;28;20700;-73
2023/08/21 10:38:13;;;;;;;18.02;16.55;;;31.20;99.90;;;;;;5012319;28;20672;-73
2023/08/21 10:41:05;;;;;;;26.58;25.02;;;30.80;99.90;;;;;;5012518;28;20172;-71
2023/08/21 10:43:45;;;;;;;37.25;35.00;;;30.40;99.90;;;;;;5088785;28;20955;-70
2023/08/21 10:46:12;;;;;;;40.53;38.05;;;30.40;99.90;;;;;;5088210;28;20542;-71
2023/08/21 10:48:39;;;;;;;48.90;46.00;;;30.10;99.90;;;;;;5089125;28;20184;-72
2023/08/21 10:51:07;;;;;;;46.25;43.83;;;30.30;99.90;;;;;;5088212;28;20174;-73
2023/08/21 10:53:33;;;;;;;34.85;32.67;;;30.50;99.90;;;;;;5089034;28;20189;-72
2023/08/21 10:56:03;;;;;;;42.72;40.33;;;30.60;99.90;;;;;;5087912;28;20174;-72
2023/08/21 10:58:38;;;;;;;17.15;15.75;;;30.70;99.90;;;;;;5088923;28;20260;-72
2023/08/21 11:01:03;;;;;;;25.17;23.50;;;30.70;99.90;;;;;;5088112;28;20189;-72
2023/08/21 11:03:29;;;;;;;26.83;25.20;;;30.80;99.90;;;;;;5073066;28;20201;-71
2023/08/21 11:06:10;;;;;;;27.90;26.23;;;30.60;99.90;;;;;;5067872;28;20536;-73
2023/08/21 11:08:36;;;;;;;41.70;39.42;;;30.70;99.90;;;;;;5068322;28;20640;-74
2023/08/21 11:11:04;;;;;;;35.90;33.88;;;31.00;99.90;;;;;;5067918;28;20277;-71
2023/08/21 11:13:30;;;;;;;44.58;41.80;;;31.30;99.90;;;;;;5067670;28;20207;-72
2023/08/21 11:16:04;;;;;;;34.95;33.15;;;31.20;99.90;;;;;;5067777;28;20170;-72
2023/08/21 11:18:31;;;;;;;30.08;28.27;;;31.30;99.90;;;;;;5067869;28;20178;-72
2023/08/21 11:21:08;;;;;;;22.00;20.70;;;31.40;99.90;;;;;;5067742;28;20231;-73
2023/08/21 11:23:35;;;;;;;31.48;29.27;;;31.50;99.90;;;;;;5067378;28;20202;-73
2023/08/21 11:26:03;;;;;;;28.83;27.08;;;31.70;99.90;;;;;;5067492;28;20174;-74
2023/08/21 11:28:30;;;;;;;32.15;30.25;;;31.80;99.90;;;;;;5066254;28;20194;-74
2023/08/21 11:30:56;;;;;;;36.58;34.58;;;31.90;99.90;;;;;;5077620;28;20170;-74
2023/08/21 11:33:22;;;;;;;39.72;37.63;;;32.10;99.90;;;;;;5087036;28;20181;-74
2023/08/21 11:35:50;;;;;;;43.42;40.80;;;32.10;99.90;;;;;;5087441;28;20170;-72
2023/08/21 11:38:22;;;;;;;36.58;34.10;;;32.20;99.90;;;;;;5087556;28;20174;-74
2023/08/21 11:40:56;;;;;;;41.67;39.42;;;32.10;99.90;;;;;;5087479;28;20165;-73
2023/08/21 11:43:33;;;;;;;45.38;43.13;;;32.00;99.90;;;;;;5087146;28;20201;-73
2023/08/21 11:46:00;;;;;;;41.22;38.95;;;32.10;99.90;;;;;;5085643;28;20169;-72
2023/08/21 11:48:26;;;;;;;39.95;37.60;;;31.90;99.90;;;;;;5086161;28;20650;-73
2023/08/21 11:50:53;;;;;;;40.33;38.10;;;31.60;99.90;;;;;;5085536;28;20185;-74
2023/08/21 11:53:31;;;;;;;34.40;32.50;;;31.40;99.90;;;;;;5082963;28;20207;-72
2023/08/21 11:55:57;;;;;;;32.83;31.17;;;31.40;99.90;;;;;;5071856;28;20303;-73
2023/08/21 11:58:22;;;;;;;36.53;34.67;;;31.30;99.90;;;;;;5073743;28;20253;-73
2023/08/21 12:00:48;;;;;;;32.22;30.42;;;31.00;99.90;;;;;;5073557;28;20170;-74
2023/08/21 12:03:18;;;;;;;44.97;42.58;;;30.80;99.90;;;;;;5063322;28;20206;-74
2023/08/21 12:05:44;;;;;;;43.55;41.25;;;30.50;99.90;;;;;;5053848;28;20198;-75
2023/08/21 12:08:09;;;;;;;32.30;30.70;;;30.60;99.90;;;;;;5052282;28;20187;-74
2023/08/21 12:10:35;;;;;;;32.97;31.17;;;30.90;99.90;;;;;;5053712;28;20167;-74
2023/08/21 12:13:01;;;;;;;35.35;33.33;;;30.80;99.90;;;;;;5054063;28;20190;-71
2023/08/21 12:15:27;;;;;;;36.58;34.33;;;30.90;99.90;;;;;;5053514;28;20194;-73
2023/08/21 12:17:52;;;;;;;33.42;31.23;;;30.90;99.90;;;;;;5053169;28;20178;-73
2023/08/21 12:20:18;;;;;;;45.50;43.13;;;31.10;99.90;;;;;;5053317;28;20608;-72
2023/08/21 12:22:44;;;;;;;33.55;31.95;;;31.30;99.90;;;;;;5052566;28;20199;-74
2023/08/21 12:25:10;;;;;;;41.58;39.38;;;31.50;99.90;;;;;;5071297;28;20202;-73
2023/08/21 12:27:36;;;;;;;43.38;40.83;;;31.70;99.90;;;;;;5073392;28;20162;-70
2023/08/21 12:30:02;;;;;;;33.85;31.35;;;31.80;99.90;;;;;;5073247;28;20594;-73
2023/08/21 12:32:28;;;;;;;43.00;40.40;;;31.60;99.90;;;;;;5072963;28;20178;-72
2023/08/21 12:34:53;;;;;;;42.75;40.40;;;31.80;99.90;;;;;;5073069;28;20189;-73
2023/08/21 12:37:19;;;;;;;39.95;37.90;;;31.80;99.90;;;;;;5073367;28;20169;-73